createdAt,value
2023-02-27T00:00:47.251Z,1.00
2023-02-27T00:03:13.805Z,0.92
2023-02-27T00:05:41.900Z,0.85
2023-02-27T00:08:08.945Z,0.84
2023-02-27T00:10:35.758Z,0.83
2023-02-27T00:13:02.329Z,0.83
2023-02-27T00:15:31.812Z,0.83
2023-02-27T00:17:59.551Z,0.85
2023-02-27T00:20:26.767Z,0.83
2023-02-27T00:22:53.346Z,0.80
2023-02-27T00:25:19.951Z,0.75
2023-02-27T00:27:46.561Z,0.76
2023-02-27T00:30:15.590Z,0.72
2023-02-27T00:32:42.623Z,0.73
2023-02-27T00:35:11.006Z,0.68
2023-02-27T00:37:38.597Z,0.65
2023-02-27T00:40:06.498Z,0.66
2023-02-27T00:42:33.477Z,0.62
2023-02-27T00:45:00.107Z,0.60
2023-02-27T00:47:26.714Z,0.59
2023-02-27T00:49:53.358Z,0.56
2023-02-27T00:52:20.111Z,0.56
2023-02-27T00:54:46.795Z,0.51
2023-02-27T00:57:13.440Z,0.49
2023-02-27T00:59:40.003Z,0.51
2023-02-27T01:02:07.892Z,0.50
2023-02-27T01:04:34.526Z,0.47
2023-02-27T01:07:01.102Z,0.45
2023-02-27T01:09:27.677Z,0.43
2023-02-27T01:11:54.298Z,0.41
2023-02-27T01:14:20.952Z,0.39
2023-02-27T01:16:47.520Z,0.42
2023-02-27T01:19:14.090Z,0.42
2023-02-27T01:21:42.162Z,0.41
2023-02-27T01:24:09.808Z,0.44
2023-02-27T01:26:36.467Z,0.43
2023-02-27T01:29:04.659Z,0.46
2023-02-27T01:31:32.604Z,0.45
2023-02-27T01:33:59.225Z,0.46
2023-02-27T01:36:25.840Z,0.46
2023-02-27T01:38:52.424Z,0.45
2023-02-27T01:41:19.000Z,0.44
2023-02-27T01:44:02.300Z,0.43
2023-02-27T01:46:30.597Z,0.44
2023-02-27T01:49:12.908Z,0.45
2023-02-27T01:52:01.982Z,0.50
2023-02-27T01:54:31.159Z,0.48
2023-02-27T01:56:57.971Z,0.49
2023-02-27T01:59:24.804Z,0.53
2023-02-27T02:01:51.900Z,0.54
2023-02-27T02:04:27.676Z,0.55
2023-02-27T02:07:02.030Z,0.58
2023-02-27T02:09:29.868Z,0.58
2023-02-27T02:11:59.128Z,0.57
2023-02-27T02:14:27.682Z,0.56
2023-02-27T02:17:00.326Z,0.58
2023-02-27T02:20:08.116Z,0.61
2023-02-27T02:22:56.083Z,0.64
2023-02-27T02:25:34.790Z,0.64
2023-02-27T02:28:04.149Z,0.68
2023-02-27T02:31:18.737Z,0.68
2023-02-27T02:34:19.284Z,0.66
2023-02-27T02:36:45.785Z,0.69
2023-02-27T02:39:40.755Z,0.72
2023-02-27T02:42:20.968Z,0.70
2023-02-27T02:45:09.515Z,0.72
2023-02-27T02:48:01.136Z,0.72
2023-02-27T02:50:48.308Z,0.72
2023-02-27T02:53:36.967Z,0.72
2023-02-27T02:56:17.396Z,0.71
2023-02-27T02:58:52.333Z,0.72
2023-02-27T03:01:27.317Z,0.73
2023-02-27T03:04:03.754Z,0.74
2023-02-27T03:06:37.643Z,0.75
2023-02-27T03:09:12.102Z,0.75
2023-02-27T03:11:44.279Z,0.76
2023-02-27T03:14:35.282Z,0.75
2023-02-27T03:17:18.184Z,0.77
2023-02-27T03:20:13.000Z,0.78
2023-02-27T03:22:42.809Z,0.78
2023-02-27T03:25:14.322Z,0.78
2023-02-27T03:27:46.356Z,0.80
2023-02-27T03:30:20.033Z,0.82
2023-02-27T03:33:05.177Z,0.83
2023-02-27T03:35:50.233Z,0.85
2023-02-27T03:39:01.960Z,0.85
2023-02-27T03:42:06.508Z,0.91
2023-02-27T03:44:55.968Z,0.91
2023-02-27T03:47:22.681Z,0.89
2023-02-27T03:49:52.036Z,0.91
2023-02-27T03:52:22.094Z,0.91
2023-02-27T03:55:15.076Z,0.91
2023-02-27T03:57:42.642Z,0.92
2023-02-27T04:00:13.815Z,0.92
2023-02-27T04:02:41.804Z,0.93
2023-02-27T04:05:08.626Z,0.91
2023-02-27T04:07:52.030Z,0.91
2023-02-27T04:10:43.008Z,0.91
2023-02-27T04:13:37.573Z,0.91
2023-02-27T04:16:31.273Z,0.94
2023-02-27T04:19:28.125Z,0.93
2023-02-27T04:22:28.246Z,0.94
2023-02-27T04:25:15.833Z,0.92
2023-02-27T04:27:45.248Z,0.94
2023-02-27T04:30:16.416Z,0.91
2023-02-27T04:32:58.087Z,0.91
2023-02-27T04:35:51.058Z,0.93
2023-02-27T04:38:29.019Z,0.93
2023-02-27T04:41:07.142Z,0.92
2023-02-27T04:43:37.377Z,0.92
2023-02-27T04:46:06.987Z,0.89
2023-02-27T04:48:43.686Z,0.89
2023-02-27T04:51:18.594Z,0.89
2023-02-27T04:53:54.352Z,0.91
2023-02-27T04:56:27.799Z,0.91
2023-02-27T04:59:00.236Z,0.89
2023-02-27T05:01:41.594Z,0.87
2023-02-27T05:04:14.198Z,0.86
2023-02-27T05:06:43.838Z,0.83
2023-02-27T05:09:35.370Z,0.82
2023-02-27T05:12:09.718Z,0.79
2023-02-27T05:14:39.774Z,0.78
2023-02-27T05:17:09.327Z,0.79
2023-02-27T05:19:40.937Z,0.80
2023-02-27T05:22:33.489Z,0.83
2023-02-27T05:25:12.248Z,0.79
2023-02-27T05:27:51.209Z,0.79
2023-02-27T05:30:27.201Z,0.80
2023-02-27T05:33:05.543Z,0.82
2023-02-27T05:35:38.206Z,0.84
2023-02-27T05:38:12.876Z,0.84
2023-02-27T05:40:43.711Z,0.83
2023-02-27T05:43:21.220Z,0.85
2023-02-27T05:45:53.344Z,0.87
2023-02-27T05:48:30.373Z,0.88
2023-02-27T05:50:59.028Z,0.87
2023-02-27T05:53:30.537Z,0.87
2023-02-27T05:56:01.811Z,0.90
2023-02-27T05:58:51.263Z,0.91
2023-02-27T06:01:17.894Z,0.91
2023-02-27T06:03:44.624Z,0.89
2023-02-27T06:06:18.597Z,0.93
2023-02-27T06:08:45.742Z,0.90
2023-02-27T06:11:13.306Z,0.91
2023-02-27T06:13:41.954Z,0.93
2023-02-27T06:16:12.719Z,0.97
2023-02-27T06:18:39.378Z,0.98
2023-02-27T06:21:06.568Z,0.99
2023-02-27T06:23:33.328Z,1.01
2023-02-27T06:26:00.090Z,1.03
2023-02-27T06:28:26.664Z,1.07
2023-02-27T06:30:57.677Z,1.10
2023-02-27T06:33:26.038Z,1.15
2023-02-27T06:35:53.075Z,1.16
2023-02-27T06:38:19.728Z,1.19
2023-02-27T06:40:46.312Z,1.23
2023-02-27T06:43:12.900Z,1.29
2023-02-27T06:45:39.494Z,1.34
2023-02-27T06:48:06.332Z,1.40
2023-02-27T06:50:33.056Z,1.48
2023-02-27T06:52:59.596Z,1.53
2023-02-27T06:55:26.165Z,1.58
2023-02-27T06:57:52.760Z,1.64
2023-02-27T07:00:19.751Z,1.68
2023-02-27T07:02:46.369Z,1.71
2023-02-27T07:05:12.982Z,1.75
2023-02-27T07:07:40.548Z,1.78
2023-02-27T07:10:11.715Z,1.82
2023-02-27T07:12:39.903Z,1.87
2023-02-27T07:15:07.751Z,1.92
2023-02-27T07:17:34.356Z,1.96
2023-02-27T07:20:02.053Z,2.02
2023-02-27T07:22:28.698Z,2.04
2023-02-27T07:24:55.280Z,2.11
2023-02-27T07:27:21.884Z,2.16
2023-02-27T07:29:48.455Z,2.23
2023-02-27T07:32:15.332Z,2.28
2023-02-27T07:34:42.016Z,2.33
2023-02-27T07:37:08.878Z,2.40
2023-02-27T07:39:35.552Z,2.46
2023-02-27T07:42:02.121Z,2.57
2023-02-27T07:44:28.722Z,2.68
2023-02-27T07:46:55.379Z,2.79
2023-02-27T07:49:22.118Z,2.90
2023-02-27T07:51:48.918Z,3.00
2023-02-27T07:54:15.633Z,3.13
2023-02-27T07:56:42.197Z,3.21
2023-02-27T07:59:08.851Z,3.30
2023-02-27T08:01:35.482Z,3.38
2023-02-27T08:04:02.042Z,3.46
2023-02-27T08:06:28.856Z,3.52
2023-02-27T08:08:55.870Z,3.55
2023-02-27T08:11:22.468Z,3.53
2023-02-27T08:14:05.448Z,3.54
2023-02-27T08:16:32.542Z,3.52
2023-02-27T08:19:00.253Z,3.49
2023-02-27T08:21:27.755Z,3.53
2023-02-27T08:23:54.683Z,3.56
2023-02-27T08:26:21.792Z,3.60
2023-02-27T08:28:48.380Z,3.59
2023-02-27T08:31:15.104Z,3.59
2023-02-27T08:33:41.681Z,3.63
2023-02-27T08:36:08.586Z,3.67
2023-02-27T08:38:35.202Z,3.71
2023-02-27T08:41:01.806Z,3.78
2023-02-27T08:43:28.388Z,3.82
2023-02-27T08:45:55.033Z,3.85
2023-02-27T08:48:24.061Z,3.88
2023-02-27T08:50:51.326Z,3.94
2023-02-27T08:53:18.055Z,4.02
2023-02-27T08:55:44.785Z,4.11
2023-02-27T08:58:11.321Z,4.21
2023-02-27T09:00:37.932Z,4.29
2023-02-27T09:03:04.588Z,4.36
2023-02-27T09:05:35.151Z,4.37
2023-02-27T09:08:03.256Z,4.37
2023-02-27T09:10:30.993Z,4.42
2023-02-27T09:12:57.588Z,4.49
2023-02-27T09:15:24.378Z,4.51
2023-02-27T09:17:51.422Z,4.48
2023-02-27T09:20:18.116Z,4.45
2023-02-27T09:22:44.834Z,4.39
2023-02-27T09:25:11.517Z,4.38
2023-02-27T09:27:38.090Z,4.41
2023-02-27T09:30:05.468Z,4.44
2023-02-27T09:32:32.710Z,4.49
2023-02-27T09:35:00.442Z,4.52
2023-02-27T09:37:26.988Z,4.52
2023-02-27T09:39:53.534Z,4.54
2023-02-27T09:42:26.536Z,4.60
2023-02-27T09:44:57.709Z,4.62
2023-02-27T09:47:48.071Z,4.64
2023-02-27T09:50:20.274Z,4.72
2023-02-27T09:52:46.916Z,4.76
2023-02-27T09:55:20.912Z,4.82
2023-02-27T09:57:56.426Z,4.83
2023-02-27T10:00:49.313Z,4.90
2023-02-27T10:03:36.203Z,5.02
2023-02-27T10:06:14.743Z,5.14
2023-02-27T10:09:22.390Z,5.28
2023-02-27T10:12:26.787Z,5.37
2023-02-27T10:15:05.988Z,5.55
2023-02-27T10:17:38.878Z,5.66
2023-02-27T10:20:10.648Z,5.76
2023-02-27T10:22:43.349Z,5.88
2023-02-27T10:25:30.266Z,6.04
2023-02-27T10:28:08.895Z,6.18
2023-02-27T10:30:35.951Z,6.23
2023-02-27T10:33:09.019Z,6.26
2023-02-27T10:35:39.091Z,6.33
2023-02-27T10:38:29.395Z,6.22
2023-02-27T10:40:58.197Z,6.26
2023-02-27T10:43:25.086Z,6.27
2023-02-27T10:45:52.986Z,6.38
2023-02-27T10:48:20.616Z,6.48
2023-02-27T10:50:52.241Z,6.68
2023-02-27T10:53:23.075Z,6.85
2023-02-27T10:56:05.273Z,7.14
2023-02-27T10:58:35.551Z,7.55
2023-02-27T11:01:04.990Z,8.05
2023-02-27T11:03:40.954Z,8.56
2023-02-27T11:06:34.575Z,9.19
2023-02-27T11:09:13.151Z,9.73
2023-02-27T11:11:39.870Z,10.10
2023-02-27T11:14:36.304Z,9.95
2023-02-27T11:17:03.708Z,9.77
2023-02-27T11:19:38.935Z,9.54
2023-02-27T11:22:17.275Z,9.35
2023-02-27T11:24:44.428Z,9.45
2023-02-27T11:27:26.490Z,9.53
2023-02-27T11:30:01.174Z,9.50
2023-02-27T11:32:36.173Z,9.41
2023-02-27T11:35:04.592Z,9.23
2023-02-27T11:37:35.091Z,8.99
2023-02-27T11:40:12.826Z,9.02
2023-02-27T11:42:56.646Z,9.16
2023-02-27T11:46:19.452Z,9.65
2023-02-27T11:48:30.908Z,10.44
2023-02-27T11:51:00.234Z,11.24
2023-02-27T11:53:44.794Z,12.04
2023-02-27T11:56:17.101Z,12.70
2023-02-27T11:59:00.896Z,12.96
2023-02-27T12:01:49.416Z,13.20
2023-02-27T12:04:42.041Z,13.52
2023-02-27T12:07:15.225Z,13.64
2023-02-27T12:09:51.583Z,13.70
2023-02-27T12:12:28.093Z,13.82
2023-02-27T12:15:00.805Z,14.42
2023-02-27T12:17:44.951Z,14.73
2023-02-27T12:20:42.078Z,14.70
2023-02-27T12:23:30.326Z,14.57
2023-02-27T12:26:10.464Z,14.51
2023-02-27T12:28:36.979Z,14.35
2023-02-27T12:31:13.447Z,13.89
2023-02-27T12:34:18.688Z,13.92
2023-02-27T12:36:45.938Z,13.77
2023-02-27T12:39:28.670Z,13.93
2023-02-27T12:42:39.909Z,14.29
2023-02-27T12:45:15.638Z,14.48
2023-02-27T12:48:12.672Z,15.12
2023-02-27T12:50:50.861Z,15.44
2023-02-27T12:53:50.029Z,15.89
2023-02-27T12:56:20.680Z,15.98
2023-02-27T12:59:29.367Z,15.50
2023-02-27T13:02:44.434Z,15.14
2023-02-27T13:05:24.334Z,14.30
2023-02-27T13:07:59.988Z,13.76
2023-02-27T13:10:44.084Z,13.09
2023-02-27T13:13:26.228Z,12.50
2023-02-27T13:16:01.858Z,12.24
2023-02-27T13:18:38.564Z,12.10
2023-02-27T13:21:30.089Z,12.17
2023-02-27T13:24:15.007Z,12.39
2023-02-27T13:26:53.806Z,12.43
2023-02-27T13:29:23.426Z,12.84
2023-02-27T13:32:01.447Z,13.02
2023-02-27T13:34:40.209Z,12.83
2023-02-27T13:37:08.827Z,12.91
2023-02-27T13:39:45.706Z,12.45
2023-02-27T13:42:27.480Z,12.20
2023-02-27T13:44:54.142Z,11.93
2023-02-27T13:47:50.101Z,11.80
2023-02-27T13:50:21.256Z,11.32
2023-02-27T13:52:48.412Z,10.81
2023-02-27T13:55:31.216Z,10.77
2023-02-27T13:58:00.832Z,10.80
2023-02-27T14:00:33.041Z,10.77
2023-02-27T14:03:16.675Z,11.09
2023-02-27T14:05:46.285Z,11.63
2023-02-27T14:08:25.012Z,12.14
2023-02-27T14:11:16.476Z,12.23
2023-02-27T14:13:45.773Z,12.23
2023-02-27T14:16:37.418Z,12.50
2023-02-27T14:19:16.218Z,12.67
2023-02-27T14:21:55.848Z,12.96
2023-02-27T14:25:02.126Z,13.31
2023-02-27T14:27:52.015Z,13.76
2023-02-27T14:30:41.059Z,14.19
2023-02-27T14:33:13.698Z,14.30
2023-02-27T14:35:45.610Z,14.20
2023-02-27T14:38:17.902Z,14.28
2023-02-27T14:41:08.130Z,14.41
2023-02-27T14:43:55.065Z,14.48
2023-02-27T14:46:39.783Z,14.40
2023-02-27T14:49:17.984Z,14.45
2023-02-27T14:51:44.967Z,14.16
2023-02-27T14:54:21.243Z,14.23
2023-02-27T14:56:59.576Z,14.21
2023-02-27T14:59:34.054Z,14.27
2023-02-27T15:02:04.875Z,13.93
2023-02-27T15:04:33.141Z,13.90
2023-02-27T15:07:00.789Z,14.15
2023-02-27T15:09:35.687Z,14.10
2023-02-27T15:12:04.645Z,14.16
2023-02-27T15:14:39.726Z,14.17
2023-02-27T15:17:38.236Z,13.81
2023-02-27T15:20:25.231Z,13.32
2023-02-27T15:22:51.817Z,12.87
2023-02-27T15:25:32.353Z,12.36
2023-02-27T15:28:07.436Z,11.97
2023-02-27T15:30:34.152Z,11.52
2023-02-27T15:33:02.838Z,11.42
2023-02-27T15:35:37.902Z,11.34
2023-02-27T15:38:05.089Z,11.21
2023-02-27T15:40:34.201Z,11.17
2023-02-27T15:43:01.723Z,11.14
2023-02-27T15:45:32.950Z,10.90
2023-02-27T15:48:00.161Z,10.72
2023-02-27T15:50:42.971Z,10.28
2023-02-27T15:53:13.801Z,10.08
2023-02-27T15:55:44.375Z,10.12
2023-02-27T15:58:20.301Z,9.92
2023-02-27T16:00:47.031Z,9.66
2023-02-27T16:03:22.235Z,9.31
2023-02-27T16:05:52.530Z,9.10
2023-02-27T16:08:20.487Z,8.87
2023-02-27T16:10:48.028Z,8.55
2023-02-27T16:13:40.063Z,8.33
2023-02-27T16:16:25.645Z,8.18
2023-02-27T16:18:57.499Z,8.05
2023-02-27T16:21:26.668Z,7.86
2023-02-27T16:23:54.497Z,7.47
2023-02-27T16:26:32.628Z,7.13
2023-02-27T16:29:03.769Z,7.04
2023-02-27T16:31:39.285Z,7.03
2023-02-27T16:34:42.799Z,6.78
2023-02-27T16:37:21.132Z,6.61
2023-02-27T16:39:50.707Z,6.41
2023-02-27T16:42:17.319Z,6.32
2023-02-27T16:44:43.958Z,6.28
2023-02-27T16:47:10.928Z,6.02
2023-02-27T16:49:39.081Z,5.91
2023-02-27T16:52:07.329Z,5.97
2023-02-27T16:54:35.231Z,5.82
2023-02-27T16:57:01.825Z,5.83
2023-02-27T16:59:33.610Z,5.78
2023-02-27T17:02:02.769Z,5.81
2023-02-27T17:04:30.424Z,5.86
2023-02-27T17:06:59.226Z,5.77
2023-02-27T17:09:27.590Z,5.60
2023-02-27T17:11:55.016Z,5.55
2023-02-27T17:14:24.955Z,5.47
2023-02-27T17:16:51.671Z,5.36
2023-02-27T17:19:21.448Z,5.30
2023-02-27T17:21:48.651Z,5.27
2023-02-27T17:24:15.372Z,5.27
2023-02-27T17:26:42.396Z,5.12
2023-02-27T17:29:09.833Z,5.00
2023-02-27T17:31:37.392Z,4.89
2023-02-27T17:34:05.394Z,4.71
2023-02-27T17:36:32.278Z,4.66
2023-02-27T17:39:02.888Z,4.64
2023-02-27T17:41:31.572Z,4.56
2023-02-27T17:43:59.149Z,4.48
2023-02-27T17:46:27.689Z,4.37
2023-02-27T17:48:56.244Z,4.30
2023-02-27T17:51:23.193Z,4.21
2023-02-27T17:53:49.783Z,3.99
2023-02-27T17:56:16.360Z,3.89
2023-02-27T17:58:45.914Z,3.70
2023-02-27T18:01:15.588Z,3.52
2023-02-27T18:03:44.022Z,3.38
2023-02-27T18:06:10.682Z,3.24
2023-02-27T18:08:37.235Z,3.04
2023-02-27T18:11:04.575Z,2.98
2023-02-27T18:13:31.172Z,2.85
2023-02-27T18:15:58.025Z,2.68
2023-02-27T18:18:24.578Z,2.48
2023-02-27T18:21:06.648Z,2.24
2023-02-27T18:23:33.313Z,2.10
2023-02-27T18:26:00.523Z,2.01
2023-02-27T18:28:27.200Z,1.97
2023-02-27T18:30:53.883Z,1.91
2023-02-27T18:33:20.811Z,1.85
2023-02-27T18:35:47.477Z,1.88
2023-02-27T18:38:14.572Z,1.87
2023-02-27T18:40:42.766Z,1.84
2023-02-27T18:43:13.902Z,1.81
2023-02-27T18:45:41.005Z,1.83
2023-02-27T18:48:08.384Z,1.81
2023-02-27T18:50:35.024Z,1.79
2023-02-27T18:53:01.644Z,1.73
2023-02-27T18:55:28.332Z,1.66
2023-02-27T18:57:55.175Z,1.65
2023-02-27T19:00:24.106Z,1.71
2023-02-27T19:02:50.799Z,1.66
2023-02-27T19:05:17.510Z,1.63
2023-02-27T19:07:44.132Z,1.57
2023-02-27T19:10:11.620Z,1.55
2023-02-27T19:12:38.185Z,1.47
2023-02-27T19:15:05.726Z,1.40
2023-02-27T19:17:33.554Z,1.38
2023-02-27T19:20:00.522Z,1.30
2023-02-27T19:22:30.779Z,1.23
2023-02-27T19:24:57.726Z,1.19
2023-02-27T19:27:24.538Z,1.17
2023-02-27T19:29:51.446Z,1.09
2023-02-27T19:32:18.123Z,1.09
2023-02-27T19:34:44.872Z,1.07
2023-02-27T19:37:11.513Z,1.04
2023-02-27T19:39:38.096Z,1.02
2023-02-27T19:42:04.732Z,1.01
2023-02-27T19:44:32.400Z,1.02
2023-02-27T19:46:59.108Z,0.98
2023-02-27T19:49:25.743Z,0.94
2023-02-27T19:51:52.377Z,0.94
2023-02-27T19:54:18.965Z,0.92
2023-02-27T19:56:45.623Z,0.91
2023-02-27T19:59:12.711Z,0.86
2023-02-27T20:01:40.784Z,0.82
2023-02-27T20:04:09.103Z,0.84
2023-02-27T20:06:41.973Z,0.84
2023-02-27T20:09:11.508Z,0.83
2023-02-27T20:11:38.202Z,0.79
2023-02-27T20:14:04.989Z,0.72
2023-02-27T20:16:35.586Z,0.73
2023-02-27T20:19:07.048Z,0.71
2023-02-27T20:21:33.980Z,0.69
2023-02-27T20:24:01.364Z,0.69
2023-02-27T20:26:36.609Z,0.63
2023-02-27T20:29:06.819Z,0.64
2023-02-27T20:31:36.164Z,0.64
2023-02-27T20:34:05.939Z,0.59
2023-02-27T20:36:33.986Z,0.51
2023-02-27T20:39:00.802Z,0.46
2023-02-27T20:41:29.618Z,0.38
2023-02-27T20:43:56.962Z,0.31
2023-02-27T20:46:27.958Z,0.25
2023-02-27T20:49:00.394Z,0.22
2023-02-27T20:51:30.326Z,0.19
2023-02-27T20:53:59.310Z,0.09
2023-02-27T20:56:32.090Z,0.03
2023-02-27T20:59:01.364Z,-0.02
2023-02-27T21:01:28.592Z,-0.04
2023-02-27T21:03:57.678Z,-0.05
2023-02-27T21:06:24.761Z,-0.07
2023-02-27T21:08:55.272Z,-0.07
2023-02-27T21:11:27.194Z,-0.06
2023-02-27T21:13:55.780Z,-0.08
2023-02-27T21:16:24.993Z,-0.14
2023-02-27T21:18:52.868Z,-0.17
2023-02-27T21:24:59.847Z,-0.15
2023-02-27T21:27:26.632Z,-0.15
2023-02-27T21:29:53.280Z,-0.16
2023-02-27T21:32:19.937Z,-0.17
2023-02-27T21:34:46.605Z,-0.21
2023-02-27T21:37:13.175Z,-0.20
2023-02-27T21:39:39.723Z,-0.20
2023-02-27T21:42:07.419Z,-0.19
2023-02-27T21:44:34.190Z,-0.19
2023-02-27T21:47:09.763Z,-0.20
2023-02-27T21:49:37.303Z,-0.21
2023-02-27T21:52:04.185Z,-0.21
2023-02-27T21:54:30.774Z,-0.22
2023-02-27T21:57:01.854Z,-0.23
2023-02-27T21:59:28.987Z,-0.22
2023-02-27T22:01:57.251Z,-0.25
2023-02-27T22:04:24.352Z,-0.26
2023-02-27T22:06:52.381Z,-0.30
2023-02-27T22:09:19.834Z,-0.28
2023-02-27T22:11:46.919Z,-0.26
2023-02-27T22:14:13.551Z,-0.28
2023-02-27T22:16:40.760Z,-0.29
2023-02-27T22:19:09.754Z,-0.34
2023-02-27T22:21:37.236Z,-0.37
2023-02-27T22:24:50.495Z,-0.44
2023-02-27T22:27:17.208Z,-0.42
2023-02-27T22:29:43.789Z,-0.39
2023-02-27T22:32:10.438Z,-0.37
2023-02-27T22:34:37.081Z,-0.35
2023-02-27T22:37:03.632Z,-0.32
2023-02-27T22:39:31.185Z,-0.32
2023-02-27T22:41:57.780Z,-0.34
2023-02-27T22:44:24.412Z,-0.36
2023-02-27T22:46:51.140Z,-0.35
2023-02-27T22:49:20.638Z,-0.32
2023-02-27T22:51:50.735Z,-0.27
2023-02-27T22:54:19.303Z,-0.23
2023-02-27T22:56:45.966Z,-0.22
2023-02-27T22:59:12.568Z,-0.22
2023-02-27T23:01:39.200Z,-0.19
2023-02-27T23:04:08.509Z,-0.16
2023-02-27T23:06:38.880Z,-0.18
2023-02-27T23:09:07.546Z,-0.17
2023-02-27T23:11:34.302Z,-0.15
2023-02-27T23:14:00.928Z,-0.16
2023-02-27T23:16:27.859Z,-0.14
2023-02-27T23:18:56.902Z,-0.11
2023-02-27T23:21:31.922Z,-0.14
2023-02-27T23:23:58.629Z,-0.09
2023-02-27T23:26:28.395Z,-0.08
2023-02-27T23:28:56.695Z,-0.07
2023-02-27T23:31:23.814Z,-0.09
2023-02-27T23:33:50.480Z,-0.07
2023-02-27T23:36:17.661Z,-0.05
2023-02-27T23:38:46.646Z,-0.04
2023-02-27T23:41:17.310Z,0.00
2023-02-27T23:43:44.671Z,0.03
2023-02-27T23:46:16.340Z,0.05
2023-02-27T23:48:43.536Z,0.07
2023-02-27T23:51:11.236Z,0.08
2023-02-27T23:53:39.321Z,0.11
2023-02-27T23:56:24.028Z,0.12
2023-02-27T23:58:59.397Z,0.15
